Time;durP1;ratioP1;P1;durP2;ratioP2;P2;SDS_P1;SDS_P2;PMS_P1;PMS_P2;Temp;Humidity;BMP_temperature;BMP_pressure;BME280_temperature;BME280_humidity;BME280_pressure;Samples;Min_cycle;Max_cycle;Signal;HPM_P1;HPM_P2
2023/03/17 00:01:53;;;;;;;48.20;29.40;;;;;;;-1.17;67.21;101446.77;106941;1257;1058970;-72
2023/03/17 00:06:47;;;;;;;45.10;27.20;;;;;;;-1.21;67.29;101445.89;106837;1258;1073597;-73
2023/03/17 00:11:40;;;;;;;48.30;27.10;;;;;;;-1.25;67.20;101445.30;106837;1258;1016282;-71
2023/03/17 00:16:40;;;;;;;48.40;28.90;;;;;;;-1.35;67.30;101449.40;107041;1259;1016578;-73
2023/03/17 00:21:34;;;;;;;47.60;27.40;;;;;;;-1.45;67.41;101451.90;106898;1257;1051008;-73
2023/03/17 00:26:28;;;;;;;40.20;24.30;;;;;;;-1.53;67.49;101450.65;106937;1257;1016558;-73
2023/03/17 00:31:25;;;;;;;43.50;27.00;;;;;;;-1.59;67.75;101443.01;106933;1260;1073751;-73
2023/03/17 00:36:24;;;;;;;43.60;25.30;;;;;;;-1.66;67.72;101439.77;106797;1257;1066531;-73
2023/03/17 00:41:18;;;;;;;51.80;28.50;;;;;;;-1.72;67.81;101433.69;106911;1257;1073091;-73
2023/03/17 00:46:20;;;;;;;48.90;29.60;;;;;;;-1.73;68.04;101428.50;106915;1257;1016473;-73
2023/03/17 00:51:14;;;;;;;47.80;29.50;;;;;;;-1.80;67.81;101429.99;106947;1256;1058710;-73
2023/03/17 00:56:15;;;;;;;49.30;28.40;;;;;;;-1.89;68.03;101435.41;107075;1258;1016405;-72
2023/03/17 01:01:09;;;;;;;49.20;30.10;;;;;;;-1.98;68.12;101429.98;107064;1257;1065340;-72
2023/03/17 01:06:04;;;;;;;57.10;33.90;;;;;;;-2.04;68.09;101429.13;107009;1260;1016632;-72
2023/03/17 01:10:59;;;;;;;54.50;30.80;;;;;;;-2.07;68.45;101423.63;107129;1257;1050244;-72
2023/03/17 01:15:53;;;;;;;50.20;32.80;;;;;;;-2.11;68.45;101419.79;107001;1258;1016732;-73
2023/03/17 01:20:46;;;;;;;56.30;32.20;;;;;;;-2.14;68.31;101420.21;107063;1259;1016102;-72
2023/03/17 01:25:41;;;;;;;56.30;31.20;;;;;;;-2.20;68.42;101412.91;106971;1256;1016381;-73
2023/03/17 01:30:37;;;;;;;57.90;34.30;;;;;;;-2.23;68.72;101410.00;106955;1258;1070805;-72
2023/03/17 01:35:30;;;;;;;57.40;33.00;;;;;;;-2.28;68.43;101405.33;107055;1258;1050922;-72
2023/03/17 01:40:27;;;;;;;55.30;32.40;;;;;;;-2.34;68.47;101404.18;107143;1257;1016158;-72
2023/03/17 01:45:58;;;;;;;56.20;32.30;;;;;;;-2.39;68.57;101406.03;107099;1257;1072512;-72
2023/03/17 01:50:53;;;;;;;59.40;34.60;;;;;;;-2.47;68.68;101408.95;107017;1257;1066413;-72
2023/03/17 01:55:46;;;;;;;58.20;30.50;;;;;;;-2.52;68.70;101413.10;107297;1257;1016438;-72
2023/03/17 02:00:42;;;;;;;58.70;33.00;;;;;;;-2.54;69.04;101414.83;107416;1257;1016522;-72
2023/03/17 02:05:37;;;;;;;56.90;32.40;;;;;;;-2.56;68.89;101418.05;107066;1256;1058295;-72
2023/03/17 02:10:30;;;;;;;62.10;34.70;;;;;;;-2.61;68.86;101412.75;107033;1257;1016717;-73
2023/03/17 02:15:24;;;;;;;63.50;35.50;;;;;;;-2.62;69.05;101418.39;106909;1256;1018877;-72
2023/03/17 02:20:17;;;;;;;52.50;33.20;;;;;;;-2.68;69.01;101419.80;107162;1259;1016221;-72
2023/03/17 02:25:13;;;;;;;63.40;34.80;;;;;;;-2.76;68.95;101422.21;106839;1258;1051669;-72
2023/03/17 02:30:09;;;;;;;58.80;33.00;;;;;;;-2.81;69.06;101422.63;106892;1257;1059315;-72
2023/03/17 02:35:02;;;;;;;55.90;32.00;;;;;;;-2.88;69.32;101424.99;107020;1257;1072926;-73
2023/03/17 02:39:55;;;;;;;58.30;32.40;;;;;;;-2.91;69.46;101426.63;106915;1257;1016376;-72
2023/03/17 02:44:48;;;;;;;65.80;34.60;;;;;;;-2.94;69.39;101428.88;107088;1257;1016184;-72
2023/03/17 02:49:44;;;;;;;57.90;31.20;;;;;;;-3.01;69.49;101426.91;107167;1256;1050884;-72
2023/03/17 02:54:37;;;;;;;63.00;33.60;;;;;;;-3.06;69.65;101429.30;106986;1256;1016485;-72
2023/03/17 02:59:30;;;;;;;60.90;33.90;;;;;;;-3.08;69.54;101436.41;107054;1256;1018628;-72
2023/03/17 03:04:24;;;;;;;60.10;33.00;;;;;;;-3.11;69.59;101441.11;107042;1259;1016313;-72
2023/03/17 03:09:17;;;;;;;65.50;33.70;;;;;;;-3.17;69.42;101448.23;107043;1257;1016251;-72
2023/03/17 03:14:11;;;;;;;59.10;34.70;;;;;;;-3.22;69.63;101450.64;107257;1256;1016876;-72
2023/03/17 03:19:05;;;;;;;56.40;32.60;;;;;;;-3.28;69.49;101453.27;107344;1257;1016278;-72
2023/03/17 03:23:58;;;;;;;67.00;34.40;;;;;;;-3.31;69.68;101462.01;107031;1259;1016495;-72
2023/03/17 03:28:51;;;;;;;62.10;35.70;;;;;;;-3.32;69.63;101466.23;107033;1256;1016515;-72
2023/03/17 03:33:44;;;;;;;64.10;34.50;;;;;;;-3.38;69.55;101470.53;107075;1256;1017405;-72
2023/03/17 03:38:37;;;;;;;52.80;32.60;;;;;;;-3.42;69.85;101471.70;107027;1256;1016694;-72
2023/03/17 03:43:30;;;;;;;60.10;34.10;;;;;;;-3.47;69.69;101472.45;107057;1256;1016396;-72
2023/03/17 03:48:23;;;;;;;57.40;34.70;;;;;;;-3.51;69.87;101474.66;107161;1257;1016334;-72
2023/03/17 03:53:16;;;;;;;66.50;35.40;;;;;;;-3.52;69.88;101482.71;107085;1257;1016211;-72
2023/03/17 03:58:09;;;;;;;65.30;36.20;;;;;;;-3.56;69.82;101480.06;107069;1259;1016816;-72
2023/03/17 04:03:02;;;;;;;57.80;32.20;;;;;;;-3.58;69.90;101478.27;107011;1256;1016507;-72
2023/03/17 04:07:54;;;;;;;59.90;32.30;;;;;;;-3.63;70.07;101477.25;107017;1257;1016162;-72
2023/03/17 04:12:48;;;;;;;66.40;35.70;;;;;;;-3.63;70.16;101473.45;106965;1257;1016588;-72
2023/03/17 04:17:41;;;;;;;62.00;31.30;;;;;;;-3.67;70.19;101476.67;106876;1258;1016481;-72
2023/03/17 04:22:34;;;;;;;61.50;31.90;;;;;;;-3.70;70.26;101473.71;107001;1257;1016424;-72
2023/03/17 04:27:27;;;;;;;51.90;29.20;;;;;;;-3.74;69.72;101468.76;106925;1259;1016495;-72
2023/03/17 04:32:20;;;;;;;60.00;33.00;;;;;;;-3.78;70.34;101473.23;107488;1256;1016093;-72
2023/03/17 04:37:14;;;;;;;57.70;32.20;;;;;;;-3.79;70.13;101476.67;107056;1256;1018998;-72
2023/03/17 04:42:07;;;;;;;51.50;29.20;;;;;;;-3.82;69.96;101476.57;106889;1256;1016492;-72
2023/03/17 04:47:00;;;;;;;49.10;29.50;;;;;;;-3.87;69.62;101484.64;106949;1255;1016371;-72
2023/03/17 04:51:54;;;;;;;46.10;28.20;;;;;;;-3.91;69.87;101479.20;107023;1256;1016026;-72
2023/03/17 04:56:47;;;;;;;51.80;28.00;;;;;;;-3.93;69.77;101487.14;107018;1256;1016489;-72
2023/03/17 05:01:40;;;;;;;55.50;29.50;;;;;;;-3.97;69.74;101489.52;107055;1257;1016248;-73
2023/03/17 05:06:34;;;;;;;49.80;28.00;;;;;;;-3.95;69.92;101491.56;106994;1255;1017293;-73
2023/03/17 05:11:27;;;;;;;55.60;29.20;;;;;;;-3.93;70.05;101490.39;106998;1256;1016519;-73
2023/03/17 05:16:20;;;;;;;47.80;25.90;;;;;;;-3.90;70.11;101484.39;107080;1255;1016402;-72
2023/03/17 05:21:13;;;;;;;53.00;29.90;;;;;;;-3.84;70.34;101482.84;106963;1256;1015779;-72
2023/03/17 05:26:06;;;;;;;48.30;26.40;;;;;;;-3.78;69.79;101485.52;107029;1256;1016506;-72
2023/03/17 05:31:00;;;;;;;46.40;27.90;;;;;;;-3.73;70.47;101494.11;107026;1256;1016501;-73
2023/03/17 05:35:52;;;;;;;48.00;26.20;;;;;;;-3.68;70.14;101499.81;107002;1256;1016405;-72
2023/03/17 05:40:47;;;;;;;44.30;27.50;;;;;;;-3.61;70.57;101510.06;106966;1259;1017453;-72
2023/03/17 05:45:40;;;;;;;43.30;26.40;;;;;;;-3.54;70.77;101507.63;106956;1256;1016600;-72
2023/03/17 05:50:33;;;;;;;51.60;27.40;;;;;;;-3.45;70.69;101505.52;107037;1257;1016467;-72
2023/03/17 05:55:26;;;;;;;46.30;26.60;;;;;;;-3.35;70.99;101517.36;106991;1256;1016468;-73
2023/03/17 06:00:20;;;;;;;49.90;27.60;;;;;;;-3.26;70.95;101529.18;107004;1257;1018377;-72
2023/03/17 06:05:13;;;;;;;56.60;29.50;;;;;;;-3.14;71.19;101525.65;107037;1256;1016378;-72
2023/03/17 06:10:08;;;;;;;47.60;27.10;;;;;;;-3.01;71.20;101533.48;106931;1256;1016731;-72
2023/03/17 06:15:02;;;;;;;48.30;28.00;;;;;;;-2.86;71.33;101539.02;107039;1256;1073127;-73
2023/03/17 06:19:55;;;;;;;53.90;28.60;;;;;;;-2.68;71.33;101535.44;107030;1257;1016196;-73
2023/03/17 06:24:48;;;;;;;46.70;26.80;;;;;;;-2.33;71.36;101534.21;106963;1259;1016611;-73
2023/03/17 06:29:41;;;;;;;46.80;27.30;;;;;;;-1.86;71.27;101527.40;106943;1256;1018522;-73
2023/03/17 06:34:46;;;;;;;52.30;27.90;;;;;;;-1.29;71.01;101526.14;106952;1256;1016118;-72
2023/03/17 06:45:24;;;;;;;47.90;26.40;;;;;;;-0.61;70.93;101510.48;106854;1256;1066568;-73
2023/03/17 06:50:52;;;;;;;47.00;28.10;;;;;;;-0.43;70.79;101524.12;106985;1256;1071210;-73
2023/03/17 06:55:49;;;;;;;50.10;27.30;;;;;;;0.00;70.53;101521.77;107003;1256;1050755;-72
2023/03/17 07:01:13;;;;;;;43.50;25.50;;;;;;;0.63;70.08;101522.96;107051;1256;1058797;-73
2023/03/17 07:06:14;;;;;;;43.00;25.10;;;;;;;1.47;69.24;101526.46;106906;1257;1073171;-72
2023/03/17 07:11:10;;;;;;;39.70;22.10;;;;;;;1.82;69.17;101526.67;106913;1259;1065150;-72
2023/03/17 07:16:06;;;;;;;33.90;20.50;;;;;;;2.17;68.49;101525.54;106871;1256;1071202;-73
2023/03/17 07:21:06;;;;;;;37.70;20.90;;;;;;;2.49;68.27;101523.09;107066;1256;1050953;-72
2023/03/17 07:26:03;;;;;;;26.30;17.60;;;;;;;2.70;67.84;101519.42;106865;1256;1058758;-73
2023/03/17 07:30:59;;;;;;;30.20;18.90;;;;;;;2.79;67.42;101510.92;107009;1256;1073394;-73
2023/03/17 07:35:56;;;;;;;27.80;18.10;;;;;;;2.69;67.36;101501.23;107057;1256;1065116;-73
2023/03/17 07:41:21;;;;;;;23.70;14.30;;;;;;;2.64;67.56;101503.84;106907;1256;1070368;-73
2023/03/17 07:46:18;;;;;;;25.50;15.40;;;;;;;2.82;67.45;101508.15;106945;1256;1052266;-73
2023/03/17 07:51:20;;;;;;;25.20;15.90;;;;;;;3.77;66.41;101502.06;106864;1256;1058067;-73
2023/03/17 07:56:13;;;;;;;17.00;11.90;;;;;;;7.21;63.11;101487.53;106914;1256;1075171;-73
2023/03/17 08:01:17;;;;;;;18.20;12.50;;;;;;;10.58;58.39;101473.38;106928;1256;1016209;-74
2023/03/17 08:11:43;;;;;;;11.80;9.90;;;;;;;13.41;52.55;101468.01;107002;1256;1050777;-74
2023/03/17 08:16:43;;;;;;;12.10;9.10;;;;;;;12.89;50.43;101465.30;107066;1256;1059036;-74
2023/03/17 08:21:36;;;;;;;14.00;9.80;;;;;;;13.76;49.53;101458.70;107028;1259;1073205;-73
2023/03/17 08:26:29;;;;;;;16.60;9.80;;;;;;;15.67;46.55;101451.18;107200;1256;1016328;-74
2023/03/17 08:31:27;;;;;;;13.30;8.80;;;;;;;15.82;46.20;101450.52;106992;1256;1071064;-73
2023/03/17 08:36:22;;;;;;;8.80;6.60;;;;;;;17.28;44.79;101445.29;106816;1255;1051117;-74
2023/03/17 08:41:19;;;;;;;8.20;6.90;;;;;;;16.79;43.71;101449.39;106949;1256;1016524;-74
2023/03/17 08:46:17;;;;;;;13.60;6.70;;;;;;;15.07;43.69;101457.66;106950;1255;1073154;-74
2023/03/17 08:51:11;;;;;;;13.30;7.30;;;;;;;13.30;43.91;101465.39;107076;1255;1066031;-73
2023/03/17 08:56:05;;;;;;;8.00;7.00;;;;;;;11.86;45.09;101471.27;107020;1256;1016308;-74
2023/03/17 09:01:03;;;;;;;11.30;7.10;;;;;;;11.80;44.77;101483.63;107048;1256;1053563;-76
2023/03/17 09:05:58;;;;;;;9.10;6.60;;;;;;;11.43;44.28;101485.50;107132;1256;1057594;-76
2023/03/17 09:10:51;;;;;;;8.50;5.60;;;;;;;11.13;44.64;101488.15;107067;1256;1072290;-76
2023/03/17 09:15:45;;;;;;;8.30;6.60;;;;;;;10.60;44.85;101485.81;107007;1256;1016431;-75
2023/03/17 09:20:39;;;;;;;8.40;6.40;;;;;;;10.22;45.88;101486.58;107026;1257;1016346;-73
2023/03/17 09:25:32;;;;;;;8.20;6.40;;;;;;;11.12;44.19;101489.35;107015;1256;1016548;-75
2023/03/17 09:30:26;;;;;;;9.70;5.40;;;;;;;11.42;44.36;101485.48;107003;1259;1017483;-75
2023/03/17 09:35:19;;;;;;;8.60;5.60;;;;;;;12.14;42.81;101478.36;107030;1256;1016537;-75
2023/03/17 09:40:18;;;;;;;6.90;4.90;;;;;;;13.07;41.54;101484.63;107073;1256;1016512;-75
2023/03/17 09:45:14;;;;;;;9.50;5.80;;;;;;;13.93;40.46;101470.98;107048;1256;1071092;-75
2023/03/17 09:50:15;;;;;;;7.20;4.80;;;;;;;13.26;41.14;101465.15;107046;1255;1051437;-74
2023/03/17 09:55:17;;;;;;;5.70;5.00;;;;;;;14.11;40.17;101455.19;107014;1256;1058072;-74
2023/03/17 10:00:26;;;;;;;7.40;5.60;;;;;;;16.58;37.74;101443.05;107017;1256;1071560;-74
2023/03/17 10:05:21;;;;;;;6.20;5.60;;;;;;;19.43;35.61;101432.58;107079;1256;1065555;-75
2023/03/17 10:10:33;;;;;;;7.40;6.20;;;;;;;20.64;34.44;101425.49;107078;1256;1070807;-75
2023/03/17 10:15:37;;;;;;;6.30;4.60;;;;;;;21.62;32.71;101411.37;107055;1256;1053362;-74
2023/03/17 10:20:39;;;;;;;4.10;3.70;;;;;;;22.77;30.52;101394.20;107121;1256;1058571;-75
2023/03/17 10:25:35;;;;;;;4.40;2.90;;;;;;;22.96;28.49;101393.44;107046;1256;1073735;-74
2023/03/17 10:30:33;;;;;;;5.30;4.80;;;;;;;23.95;29.28;101390.89;107062;1256;1064943;-75
2023/03/17 10:35:26;;;;;;;8.10;4.70;;;;;;;24.27;27.68;101386.30;107070;1256;1070428;-75
2023/03/17 10:40:29;;;;;;;4.90;3.80;;;;;;;24.52;27.63;101374.95;107024;1256;1016522;-75
2023/03/17 10:45:29;;;;;;;3.80;3.40;;;;;;;23.27;27.38;101376.55;107098;1255;1057256;-75
2023/03/17 10:50:29;;;;;;;5.30;4.80;;;;;;;22.46;26.95;101380.61;107003;1256;1072507;-75
2023/03/17 10:55:28;;;;;;;6.20;4.90;;;;;;;22.82;27.61;101366.90;107103;1256;1065402;-74
2023/03/17 11:00:22;;;;;;;5.90;4.30;;;;;;;22.98;27.38;101362.97;107056;1255;1071643;-74
2023/03/17 11:05:29;;;;;;;6.80;4.50;;;;;;;23.12;27.36;101353.64;107014;1256;1016247;-74
2023/03/17 11:10:25;;;;;;;7.50;4.40;;;;;;;23.46;27.70;101354.35;107035;1256;1058689;-74
2023/03/17 11:15:19;;;;;;;5.00;3.90;;;;;;;23.62;27.49;101353.92;107016;1256;1074721;-74
2023/03/17 11:20:23;;;;;;;5.40;4.00;;;;;;;23.47;27.34;101350.08;107083;1256;1016412;-74
2023/03/17 11:25:19;;;;;;;4.40;3.90;;;;;;;23.25;27.09;101347.31;106965;1259;1071515;-74
2023/03/17 11:30:32;;;;;;;5.70;3.80;;;;;;;22.75;27.40;101345.67;107036;1255;1050796;-74
2023/03/17 11:35:51;;;;;;;6.80;3.90;;;;;;;21.44;27.04;101348.50;107032;1256;1061698;-74
2023/03/17 11:41:04;;;;;;;6.20;4.10;;;;;;;20.28;28.54;101345.72;107037;1259;1073463;-74
2023/03/17 11:46:26;;;;;;;6.50;4.70;;;;;;;19.86;28.47;101339.00;107107;1259;1065959;-74
2023/03/17 11:51:29;;;;;;;7.60;4.40;;;;;;;19.52;29.33;101332.86;107014;1256;1070639;-74
2023/03/17 11:56:42;;;;;;;8.90;5.60;;;;;;;18.82;28.41;101330.09;107063;1256;1051252;-74
2023/03/17 12:01:50;;;;;;;9.70;4.90;;;;;;;17.63;29.10;101324.52;107134;1256;1058810;-73
2023/03/17 12:06:49;;;;;;;9.90;5.60;;;;;;;16.89;30.36;101309.85;106917;1259;1072851;-73
2023/03/17 12:11:45;;;;;;;9.00;5.50;;;;;;;16.24;30.92;101303.27;107132;1256;1065785;-73
2023/03/17 12:16:49;;;;;;;9.60;5.90;;;;;;;15.69;32.08;101299.34;107194;1256;1072914;-71
2023/03/17 12:22:04;;;;;;;10.60;6.90;;;;;;;15.18;32.15;101288.71;107086;1256;1051156;-72
2023/03/17 12:27:03;;;;;;;8.20;6.40;;;;;;;14.54;32.70;101285.53;107122;1257;1058688;-73
2023/03/17 12:32:07;;;;;;;8.40;6.60;;;;;;;14.21;33.75;101276.30;107121;1256;1072293;-75
2023/03/17 12:37:00;;;;;;;8.60;6.30;;;;;;;13.90;33.98;101283.09;107079;1257;1066064;-75
2023/03/17 12:42:27;;;;;;;10.90;7.10;;;;;;;13.67;34.31;101280.34;107024;1257;1016597;-74
2023/03/17 12:47:45;;;;;;;11.00;7.00;;;;;;;13.36;34.66;101269.13;107025;1259;1050562;-73
2023/03/17 12:53:15;;;;;;;8.20;5.40;;;;;;;13.26;34.88;101273.13;107092;1259;1058002;-72
2023/03/17 12:58:43;;;;;;;8.80;6.10;;;;;;;13.21;34.78;101278.11;107068;1257;1073188;-74
2023/03/17 13:03:56;;;;;;;9.10;6.00;;;;;;;12.78;35.18;101273.23;106984;1259;1065370;-74
2023/03/17 13:08:52;;;;;;;9.10;5.50;;;;;;;12.81;35.42;101275.02;107026;1255;1071097;-73
2023/03/17 13:13:54;;;;;;;7.40;5.40;;;;;;;12.61;35.30;101268.95;106922;1257;1050836;-73
2023/03/17 13:18:50;;;;;;;7.00;5.10;;;;;;;12.37;35.32;101268.16;107049;1256;1058075;-76
2023/03/17 13:23:54;;;;;;;9.50;5.30;;;;;;;12.00;35.44;101264.69;107161;1256;1073007;-75
2023/03/17 13:28:50;;;;;;;7.60;5.10;;;;;;;11.77;35.95;101259.85;106976;1256;1065135;-72
2023/03/17 13:33:53;;;;;;;11.50;6.00;;;;;;;11.66;36.00;101258.23;106970;1256;1071878;-73
2023/03/17 13:39:24;;;;;;;7.20;5.30;;;;;;;11.51;35.89;101254.27;107064;1259;1051740;-74
2023/03/17 13:44:23;;;;;;;8.20;5.50;;;;;;;11.36;36.50;101252.73;107036;1256;1057938;-74
2023/03/17 13:49:30;;;;;;;9.90;5.80;;;;;;;11.24;36.69;101244.98;107058;1257;1072737;-74
2023/03/17 13:54:26;;;;;;;14.10;6.30;;;;;;;10.97;36.91;101234.14;107077;1256;1064876;-73
2023/03/17 13:59:22;;;;;;;11.30;7.10;;;;;;;10.71;36.90;101230.38;107066;1256;1070227;-74
2023/03/17 14:04:26;;;;;;;9.50;6.80;;;;;;;10.58;37.38;101229.55;107082;1256;1050920;-74
2023/03/17 14:09:45;;;;;;;11.10;6.10;;;;;;;10.53;37.75;101230.65;106973;1257;1058049;-73
2023/03/17 14:14:42;;;;;;;11.90;6.60;;;;;;;10.47;37.79;101222.34;107052;1256;1072006;-74
2023/03/17 14:19:40;;;;;;;;;;;;;;;10.39;37.74;101213.81;107108;1256;1065761;-74
2023/03/17 14:24:34;;;;;;;10.50;5.70;;;;;;;10.36;38.14;101205.77;107001;1256;1070916;-73
2023/03/17 14:29:32;;;;;;;10.30;6.30;;;;;;;10.35;38.19;101200.90;107142;1256;1016567;-74
2023/03/17 14:34:25;;;;;;;7.40;5.20;;;;;;;10.30;38.20;101199.02;107029;1257;1058068;-75
2023/03/17 14:39:25;;;;;;;9.20;5.50;;;;;;;10.17;38.33;101201.44;106991;1256;1016426;-74
2023/03/17 14:44:18;;;;;;;9.20;5.30;;;;;;;9.99;38.42;101199.40;107044;1257;1065221;-73
2023/03/17 14:49:17;;;;;;;9.10;5.80;;;;;;;9.82;38.68;101199.09;107038;1255;1016177;-73
2023/03/17 14:54:14;;;;;;;9.80;5.60;;;;;;;9.67;38.58;101202.67;107036;1257;1051541;-73
2023/03/17 14:59:23;;;;;;;8.80;6.30;;;;;;;9.54;38.85;101193.64;107092;1256;1057616;-73
2023/03/17 15:04:32;;;;;;;10.50;6.50;;;;;;;9.53;39.36;101203.50;106990;1256;1073539;-72
2023/03/17 15:09:41;;;;;;;10.30;6.40;;;;;;;9.50;38.87;101204.09;107068;1256;1064575;-74
2023/03/17 15:14:41;;;;;;;8.60;5.30;;;;;;;9.38;39.14;101204.59;106999;1256;1073595;-74
2023/03/17 15:19:40;;;;;;;10.70;5.80;;;;;;;9.26;38.96;101190.05;107068;1256;1051615;-72
2023/03/17 15:24:42;;;;;;;8.30;5.60;;;;;;;9.18;39.64;101191.56;107165;1256;1058500;-72
2023/03/17 15:29:36;;;;;;;16.10;7.90;;;;;;;9.18;39.86;101179.95;107038;1257;1072743;-73
2023/03/17 15:34:29;;;;;;;11.50;5.90;;;;;;;9.21;40.20;101172.94;107031;1256;1018134;-72
2023/03/17 15:39:22;;;;;;;9.70;5.80;;;;;;;9.12;39.85;101164.56;106951;1256;1016589;-72
2023/03/17 15:44:15;;;;;;;8.30;5.30;;;;;;;9.08;40.53;101154.94;107012;1257;1016371;-72
2023/03/17 15:49:13;;;;;;;12.60;6.10;;;;;;;9.08;40.64;101164.44;106959;1256;1018636;-73
2023/03/17 15:54:06;;;;;;;6.60;4.90;;;;;;;9.07;40.76;101166.84;106977;1256;1075290;-74
2023/03/17 15:58:59;;;;;;;10.30;5.30;;;;;;;9.00;40.87;101171.66;107048;1256;1016470;-73
2023/03/17 16:03:53;;;;;;;10.50;4.90;;;;;;;8.90;40.86;101179.64;107054;1255;1016419;-73
2023/03/17 16:08:51;;;;;;;7.70;5.00;;;;;;;8.79;41.33;101179.13;107004;1257;1051424;-74
2023/03/17 16:13:46;;;;;;;7.80;4.60;;;;;;;8.65;41.49;101186.10;107085;1256;1018868;-73
2023/03/17 16:18:40;;;;;;;14.20;5.20;;;;;;;8.44;41.59;101186.64;107048;1259;1073194;-74
2023/03/17 16:23:35;;;;;;;9.40;5.10;;;;;;;8.21;42.19;101191.34;107057;1257;1065840;-73
2023/03/17 16:28:33;;;;;;;17.90;5.50;;;;;;;7.94;42.83;101193.20;107058;1259;1070414;-73
2023/03/17 16:33:39;;;;;;;7.50;5.10;;;;;;;7.66;43.14;101195.79;107013;1256;1050505;-75
2023/03/17 16:38:37;;;;;;;10.60;5.50;;;;;;;7.43;43.44;101193.91;107119;1256;1058660;-74
2023/03/17 16:43:37;;;;;;;14.40;6.60;;;;;;;7.15;44.09;101183.39;106985;1256;1073093;-74
2023/03/17 16:48:31;;;;;;;17.90;5.50;;;;;;;6.88;44.91;101182.69;107018;1256;1016488;-73
2023/03/17 16:53:24;;;;;;;13.40;5.50;;;;;;;6.63;45.28;101187.05;107069;1258;1016015;-72
2023/03/17 16:58:27;;;;;;;13.90;5.90;;;;;;;6.42;45.77;101188.91;106992;1258;1016056;-73
2023/03/17 17:03:20;;;;;;;22.10;6.60;;;;;;;6.23;46.38;101195.37;106982;1256;1060900;-74
2023/03/17 17:08:12;;;;;;;20.50;6.40;;;;;;;6.05;46.94;101199.63;106977;1259;1016292;-74
2023/03/17 17:13:07;;;;;;;16.80;7.30;;;;;;;5.87;47.31;101204.99;107038;1256;1016242;-73
2023/03/17 17:18:05;;;;;;;15.90;5.70;;;;;;;5.71;47.68;101218.73;107073;1257;1070834;-74
2023/03/17 17:23:00;;;;;;;13.70;6.90;;;;;;;5.55;47.89;101216.30;107020;1257;1050669;-74
2023/03/17 17:27:53;;;;;;;10.00;6.30;;;;;;;5.42;48.24;101218.98;107013;1257;1059182;-74
2023/03/17 17:32:46;;;;;;;16.10;6.40;;;;;;;5.27;48.52;101224.14;107003;1258;1016446;-74
2023/03/17 17:37:40;;;;;;;12.50;7.10;;;;;;;5.15;48.84;101213.60;107046;1258;1016771;-74
2023/03/17 17:42:34;;;;;;;12.80;6.90;;;;;;;4.98;49.17;101209.54;106972;1260;1018566;-73
2023/03/17 17:47:29;;;;;;;10.00;5.80;;;;;;;4.86;49.42;101208.98;107035;1260;1016560;-74
2023/03/17 17:52:24;;;;;;;12.40;6.60;;;;;;;4.73;49.61;101210.73;106989;1260;1058243;-74
2023/03/17 17:57:17;;;;;;;12.00;6.30;;;;;;;4.60;49.80;101213.23;107049;1256;1016253;-74
2023/03/17 18:02:13;;;;;;;18.60;7.20;;;;;;;4.49;49.90;101219.22;107068;1256;1016550;-74
2023/03/17 18:07:06;;;;;;;13.90;6.50;;;;;;;4.39;50.25;101219.08;107010;1257;1073341;-74
2023/03/17 18:11:59;;;;;;;10.80;6.60;;;;;;;4.30;50.39;101213.96;107004;1256;1016563;-74
2023/03/17 18:16:52;;;;;;;10.60;6.20;;;;;;;4.21;50.63;101214.39;107079;1257;1016688;-74
2023/03/17 18:21:46;;;;;;;11.50;6.00;;;;;;;4.14;50.78;101214.05;107043;1256;1016214;-74
2023/03/17 18:26:40;;;;;;;16.40;7.40;;;;;;;4.08;51.06;101213.90;106912;1258;1068394;-73
2023/03/17 18:31:43;;;;;;;13.90;8.40;;;;;;;4.02;51.35;101213.23;107010;1259;1018058;-74
2023/03/17 18:36:36;;;;;;;12.30;7.60;;;;;;;3.95;51.57;101215.10;106999;1256;1051284;-74
2023/03/17 18:41:29;;;;;;;14.40;7.30;;;;;;;3.88;51.77;101219.89;106977;1257;1016340;-73
2023/03/17 18:46:22;;;;;;;13.50;7.30;;;;;;;3.80;52.23;101213.48;106945;1257;1016368;-74
2023/03/17 18:51:15;;;;;;;18.60;8.70;;;;;;;3.74;52.32;101215.55;106965;1257;1016097;-74
2023/03/17 18:56:09;;;;;;;12.10;7.30;;;;;;;3.68;52.47;101212.85;106880;1256;1016327;-73
2023/03/17 19:01:02;;;;;;;21.30;8.70;;;;;;;3.64;52.70;101219.66;106876;1257;1018076;-74
2023/03/17 19:05:56;;;;;;;18.70;9.90;;;;;;;3.56;52.78;101211.55;106953;1258;1016509;-74
2023/03/17 19:10:49;;;;;;;19.10;8.90;;;;;;;3.51;52.95;101211.25;107310;1257;1073172;-74
2023/03/17 19:15:42;;;;;;;18.40;9.30;;;;;;;3.47;52.90;101213.95;107014;1256;1016382;-73
2023/03/17 19:20:36;;;;;;;17.40;9.00;;;;;;;3.42;52.92;101212.71;106915;1257;1017313;-73
2023/03/17 19:25:29;;;;;;;16.30;9.00;;;;;;;3.47;53.03;101212.59;106953;1256;1018130;-74
2023/03/17 19:30:22;;;;;;;15.70;8.70;;;;;;;3.50;52.81;101207.44;106989;1257;1016436;-74
2023/03/17 19:35:16;;;;;;;18.80;9.90;;;;;;;3.56;52.49;101200.39;106958;1257;1016389;-74
2023/03/17 19:40:10;;;;;;;18.60;10.10;;;;;;;3.65;52.40;101201.20;107036;1257;1017373;-74
2023/03/17 19:45:04;;;;;;;16.10;8.20;;;;;;;3.69;52.35;101207.23;107095;1257;1016432;-73
2023/03/17 19:49:57;;;;;;;15.60;8.50;;;;;;;3.69;52.21;101206.05;107076;1257;1016164;-74
2023/03/17 19:54:50;;;;;;;15.90;9.80;;;;;;;3.73;52.01;101204.37;106940;1257;1016030;-74
2023/03/17 19:59:43;;;;;;;14.50;9.60;;;;;;;3.75;52.01;101201.42;107110;1257;1015604;-74
2023/03/17 20:04:36;;;;;;;18.40;9.00;;;;;;;3.77;51.88;101204.10;107037;1256;1016230;-73
2023/03/17 20:09:30;;;;;;;13.60;9.00;;;;;;;3.80;51.82;101203.69;107092;1257;1016914;-74
2023/03/17 20:14:23;;;;;;;14.30;8.90;;;;;;;3.77;51.96;101198.73;107022;1257;1016488;-74
2023/03/17 20:19:17;;;;;;;16.90;8.90;;;;;;;3.73;52.10;101198.55;107002;1258;1016516;-73
2023/03/17 20:24:13;;;;;;;19.40;10.10;;;;;;;3.77;51.73;101195.31;106930;1257;1015991;-74
2023/03/17 20:29:07;;;;;;;14.60;7.40;;;;;;;3.78;51.84;101193.17;106851;1257;1064844;-74
2023/03/17 20:34:00;;;;;;;14.30;8.60;;;;;;;3.76;51.98;101193.38;106965;1258;1018481;-74
2023/03/17 20:38:53;;;;;;;13.30;8.60;;;;;;;3.71;52.05;101191.57;107054;1256;1018467;-74
2023/03/17 20:43:46;;;;;;;12.60;7.70;;;;;;;3.64;52.07;101185.91;107024;1257;1018361;-74
2023/03/17 20:48:40;;;;;;;12.40;7.30;;;;;;;3.63;52.16;101188.75;107292;1257;1016502;-74
2023/03/17 20:53:35;;;;;;;14.30;7.50;;;;;;;3.62;52.05;101184.25;107038;1257;1016380;-74
2023/03/17 20:58:29;;;;;;;12.70;7.10;;;;;;;3.63;52.03;101181.05;107073;1257;1070877;-74
2023/03/17 21:03:22;;;;;;;14.70;6.90;;;;;;;3.66;51.90;101183.61;106994;1256;1016198;-74
2023/03/17 21:08:15;;;;;;;12.70;6.80;;;;;;;3.63;52.02;101186.21;106934;1257;1016965;-74
2023/03/17 21:13:08;;;;;;;11.60;7.00;;;;;;;3.64;52.23;101187.59;107029;1257;1016314;-74
2023/03/17 21:18:01;;;;;;;12.40;7.00;;;;;;;3.64;52.20;101178.52;107032;1256;1016244;-74
2023/03/17 21:22:55;;;;;;;14.50;7.50;;;;;;;3.63;52.05;101176.41;107065;1256;1019571;-74
2023/03/17 21:27:48;;;;;;;11.40;7.10;;;;;;;3.65;52.04;101171.02;106913;1257;1016251;-74
2023/03/17 21:32:42;;;;;;;10.10;6.30;;;;;;;3.67;52.00;101173.56;106957;1260;1019758;-74
2023/03/17 21:37:35;;;;;;;13.60;6.20;;;;;;;3.69;52.02;101174.66;106984;1258;1017899;-74
2023/03/17 21:42:29;;;;;;;11.00;6.40;;;;;;;3.71;51.89;101168.93;107068;1257;1016207;-74
2023/03/17 21:47:21;;;;;;;13.00;8.10;;;;;;;3.68;51.87;101168.96;107017;1256;1016421;-74
2023/03/17 21:52:14;;;;;;;12.30;6.70;;;;;;;3.65;52.14;101170.34;107043;1257;1016120;-74
2023/03/17 21:57:08;;;;;;;11.60;6.00;;;;;;;3.67;52.07;101170.95;107134;1257;1016310;-74
2023/03/17 22:02:01;;;;;;;10.90;6.50;;;;;;;3.70;51.95;101172.34;107084;1256;1017497;-74
2023/03/17 22:06:55;;;;;;;10.70;6.20;;;;;;;3.70;51.95;101176.64;107043;1256;1016097;-74
2023/03/17 22:11:48;;;;;;;11.20;6.10;;;;;;;3.67;52.09;101181.80;107052;1256;1016253;-74
2023/03/17 22:16:41;;;;;;;9.60;5.90;;;;;;;3.65;51.89;101188.88;107052;1258;1016489;-74